KWLD/WLD METAR and TAF weather

Enter ICAO airport designator
Station Type Date Time Source
KWLD METAR 2019/02/20 23:54 UTC NOAA

KWLD 202354Z AUTO 00000KT 6SM HZ CLR M01/M03 A2994 RMK AO2 SLP149 T10061033 10006 21011 53011


Station Type Date Time Source
KWLD Decoded METAR 2019/02/20 23:54 UTC NOAA

STROTHER FIELD, KS, United States (KWLD) 37-10N 97-02W 350M
Feb 20, 2019 - 06:54 PM EST / 2019.02.20 2354 UTC
Wind: Calm:0
Visibility: 6 mile(s):0
Sky conditions: clear
Weather: haze
Temperature: 30.9 F (-0.6 C)
Dew Point: 26.1 F (-3.3 C)
Relative Humidity: 81%
Pressure (altimeter): 29.94 in. Hg (1013 hPa)
Pressure tendency: 0.03 inches (1.1 hPa) higher than three hours ago
ob: KWLD 202354Z AUTO 00000KT 6SM HZ CLR M01/M03 A2994 RMK AO2 SLP149 T10061033 10006 21011 53011
cycle: 0

Station Type Date Time Source
KWLD TAF UTC NOAA

Error!


Example: see airport list